createdAt,value
2019-05-28T00:00:55.832Z,21.00
2019-05-28T00:03:25.796Z,17.83
2019-05-28T00:05:55.426Z,17.27
2019-05-28T00:08:24.525Z,23.20
2019-05-28T00:10:53.572Z,20.50
2019-05-28T00:13:22.609Z,21.67
2019-05-28T00:15:51.986Z,15.77
2019-05-28T00:18:21.368Z,21.17
2019-05-28T00:20:50.755Z,21.77
2019-05-28T00:23:20.165Z,16.47
2019-05-28T00:25:49.213Z,21.73
2019-05-28T00:28:18.232Z,22.73
2019-05-28T00:30:47.937Z,19.50
2019-05-28T00:33:17.352Z,20.93
2019-05-28T00:35:46.357Z,17.10
2019-05-28T00:38:15.785Z,19.57
2019-05-28T00:40:44.855Z,18.20
2019-05-28T00:43:13.891Z,23.40
2019-05-28T00:45:43.224Z,18.57
2019-05-28T00:48:12.528Z,17.73
2019-05-28T00:50:41.538Z,26.40
2019-05-28T00:53:10.614Z,28.40
2019-05-28T00:55:40.366Z,23.57
2019-05-28T00:58:09.832Z,26.37
2019-05-28T01:00:46.957Z,18.43
2019-05-28T01:03:16.528Z,24.07
2019-05-28T01:05:45.555Z,24.00
2019-05-28T01:08:14.809Z,19.73
2019-05-28T01:10:44.756Z,21.37
2019-05-28T01:13:13.793Z,21.77
2019-05-28T01:15:43.244Z,21.13
2019-05-28T01:18:12.709Z,22.17
2019-05-28T01:20:41.751Z,20.07
2019-05-28T01:23:10.772Z,21.40
2019-05-28T01:25:39.840Z,17.63
2019-05-28T01:28:08.856Z,22.60
2019-05-28T01:30:54.039Z,21.73
2019-05-28T01:33:08.658Z,20.53
2019-05-28T01:35:37.706Z,24.97
2019-05-28T01:38:08.482Z,17.90
2019-05-28T01:40:38.108Z,22.53
2019-05-28T01:43:07.139Z,23.00
2019-05-28T01:45:36.142Z,25.23
2019-05-28T01:48:05.538Z,19.53
2019-05-28T01:50:34.892Z,22.73
2019-05-28T01:53:04.232Z,20.47
2019-05-28T01:55:33.516Z,25.53
2019-05-28T01:58:02.544Z,18.60
2019-05-28T02:00:31.586Z,32.90
2019-05-28T02:03:00.616Z,21.70
2019-05-28T02:05:29.614Z,25.40
2019-05-28T02:07:58.656Z,18.47
2019-05-28T02:10:27.676Z,21.13
2019-05-28T02:12:56.669Z,16.37
2019-05-28T02:15:25.709Z,15.70
2019-05-28T02:17:54.780Z,18.23
2019-05-28T02:20:23.906Z,16.63
2019-05-28T02:22:52.939Z,14.30
2019-05-28T02:25:22.260Z,13.47
2019-05-28T02:27:51.223Z,15.07
2019-05-28T02:30:20.736Z,13.17
2019-05-28T02:32:49.808Z,13.77
2019-05-28T02:35:19.478Z,13.17
2019-05-28T02:37:48.562Z,11.30
2019-05-28T02:40:18.396Z,12.47
2019-05-28T02:42:47.393Z,10.13
2019-05-28T02:45:17.044Z,15.57
2019-05-28T02:47:46.074Z,10.47
2019-05-28T02:50:15.739Z,14.20
2019-05-28T02:52:45.466Z,13.47
2019-05-28T02:55:14.799Z,11.23
2019-05-28T02:57:45.738Z,11.77
2019-05-28T03:00:15.517Z,13.03
2019-05-28T03:02:47.340Z,13.03
2019-05-28T03:05:16.597Z,12.77
2019-05-28T03:07:47.640Z,9.03
2019-05-28T03:10:21.667Z,12.83
2019-05-28T03:12:50.724Z,12.80
2019-05-28T03:15:19.768Z,11.43
2019-05-28T03:17:49.118Z,11.90
2019-05-28T03:20:18.648Z,12.83
2019-05-28T03:22:47.994Z,12.30
2019-05-28T03:25:17.278Z,13.50
2019-05-28T03:27:46.602Z,9.50
2019-05-28T03:30:15.821Z,8.00
2019-05-28T03:32:44.847Z,10.43
2019-05-28T03:35:13.979Z,10.83
2019-05-28T03:37:43.762Z,11.63
2019-05-28T03:40:13.640Z,12.00
2019-05-28T03:42:42.659Z,13.63
2019-05-28T03:45:12.488Z,13.40
2019-05-28T03:47:41.822Z,14.30
2019-05-28T03:50:11.700Z,15.60
2019-05-28T03:52:41.130Z,15.43
2019-05-28T03:55:10.157Z,11.77
2019-05-28T03:57:39.820Z,10.00
2019-05-28T04:00:09.051Z,13.57
2019-05-28T04:02:38.400Z,10.77
2019-05-28T04:05:07.755Z,12.03
2019-05-28T04:07:37.155Z,11.77
2019-05-28T04:10:06.940Z,11.93
2019-05-28T04:12:36.313Z,10.27
2019-05-28T04:15:05.796Z,8.53
2019-05-28T04:17:34.998Z,17.77
2019-05-28T04:20:05.357Z,14.37
2019-05-28T04:22:34.383Z,15.07
2019-05-28T04:25:03.487Z,12.07
2019-05-28T04:27:32.517Z,12.87
2019-05-28T04:30:01.543Z,15.80
2019-05-28T04:32:39.825Z,13.23
2019-05-28T04:35:01.789Z,16.57
2019-05-28T04:37:30.874Z,12.17
2019-05-28T04:39:59.928Z,14.23
2019-05-28T04:42:29.362Z,12.50
2019-05-28T04:44:58.427Z,17.03
2019-05-28T04:47:27.968Z,15.73
2019-05-28T04:49:57.000Z,14.63
2019-05-28T04:52:26.116Z,12.03
2019-05-28T04:54:55.180Z,13.73
2019-05-28T04:57:25.300Z,14.27
2019-05-28T04:59:54.349Z,13.90
2019-05-28T05:02:23.382Z,8.67
2019-05-28T05:04:52.736Z,12.77
2019-05-28T05:07:21.815Z,18.00
2019-05-28T05:09:50.858Z,15.80
2019-05-28T05:12:19.893Z,11.00
2019-05-28T05:14:48.960Z,10.83
2019-05-28T05:17:18.182Z,12.03
2019-05-28T05:19:47.251Z,10.03
2019-05-28T05:22:17.119Z,13.63
2019-05-28T05:24:47.248Z,12.20
2019-05-28T05:27:16.326Z,9.47
2019-05-28T05:29:45.898Z,12.10
2019-05-28T05:32:14.973Z,9.67
2019-05-28T05:34:44.589Z,7.37
2019-05-28T05:37:13.926Z,14.23
2019-05-28T05:39:42.941Z,9.73
2019-05-28T05:42:12.636Z,9.47
2019-05-28T05:44:42.130Z,11.33
2019-05-28T05:47:11.858Z,7.47
2019-05-28T05:49:41.584Z,8.67
2019-05-28T05:52:10.569Z,10.27
2019-05-28T05:54:39.666Z,10.13
2019-05-28T05:57:08.905Z,7.97
2019-05-28T05:59:37.956Z,11.10
2019-05-28T06:02:06.972Z,11.13
2019-05-28T06:04:36.009Z,6.30
2019-05-28T06:07:05.047Z,8.73
2019-05-28T06:09:34.072Z,7.13
2019-05-28T06:12:03.397Z,7.47
2019-05-28T06:14:32.832Z,15.23
2019-05-28T06:17:02.168Z,9.40
2019-05-28T06:19:31.190Z,7.23
2019-05-28T06:22:00.554Z,6.57
2019-05-28T06:24:29.584Z,7.60
2019-05-28T06:26:58.586Z,9.47
2019-05-28T06:29:27.899Z,7.50
2019-05-28T06:31:56.934Z,5.87
2019-05-28T06:34:25.978Z,4.27
2019-05-28T06:36:54.984Z,4.17
2019-05-28T06:39:24.009Z,3.50
2019-05-28T06:41:53.062Z,4.20
2019-05-28T06:44:22.095Z,6.33
2019-05-28T06:46:51.139Z,4.50
2019-05-28T06:49:20.493Z,3.10
2019-05-28T06:51:49.960Z,5.40
2019-05-28T06:54:19.001Z,2.63
2019-05-28T06:56:48.020Z,4.43
2019-05-28T06:59:17.759Z,2.40
2019-05-28T07:01:46.829Z,2.90
2019-05-28T07:04:31.374Z,3.00
2019-05-28T07:06:46.659Z,2.33
2019-05-28T07:09:15.681Z,2.73
2019-05-28T07:11:44.715Z,1.67
2019-05-28T07:14:13.744Z,2.33
2019-05-28T07:16:52.667Z,2.37
2019-05-28T07:19:24.206Z,1.17
2019-05-28T07:21:45.286Z,1.93
2019-05-28T07:24:14.958Z,3.47
2019-05-28T07:26:43.979Z,1.57
2019-05-28T07:29:13.018Z,1.00
2019-05-28T07:31:42.078Z,2.23
2019-05-28T07:34:11.137Z,1.00
2019-05-28T07:36:40.155Z,1.37
2019-05-28T07:39:12.100Z,2.23
2019-05-28T07:41:39.927Z,2.97
2019-05-28T07:44:08.951Z,1.60
2019-05-28T07:46:38.341Z,0.83
2019-05-28T07:49:08.220Z,1.70
2019-05-28T07:51:37.254Z,2.70
2019-05-28T07:54:06.756Z,2.47
2019-05-28T07:56:36.099Z,1.27
2019-05-28T07:59:05.118Z,3.07
2019-05-28T08:01:34.130Z,1.60
2019-05-28T08:04:03.509Z,0.97
2019-05-28T08:06:32.903Z,2.63
2019-05-28T08:09:02.277Z,1.33
2019-05-28T08:11:31.330Z,2.07
2019-05-28T08:14:00.652Z,1.07
2019-05-28T08:16:31.174Z,2.03
2019-05-28T08:19:00.529Z,1.63
2019-05-28T08:21:32.311Z,2.47
2019-05-28T08:24:00.598Z,2.37
2019-05-28T08:26:30.835Z,2.53
2019-05-28T08:29:00.113Z,1.57
2019-05-28T08:31:29.173Z,1.70
2019-05-28T08:33:58.197Z,2.00
2019-05-28T08:36:27.252Z,1.57
2019-05-28T08:38:56.668Z,2.03
2019-05-28T08:41:25.863Z,5.80
2019-05-28T08:43:54.905Z,3.80
2019-05-28T08:46:23.901Z,3.90
2019-05-28T08:48:52.953Z,2.60
2019-05-28T08:51:21.946Z,3.30
2019-05-28T08:53:50.979Z,3.60
2019-05-28T08:56:20.005Z,3.17
2019-05-28T08:58:49.015Z,2.67
2019-05-28T09:01:18.433Z,5.60
2019-05-28T09:03:47.804Z,2.70
2019-05-28T09:06:16.810Z,7.47
2019-05-28T09:08:45.841Z,4.40
2019-05-28T09:11:14.961Z,6.53
2019-05-28T09:13:44.470Z,11.27
2019-05-28T09:16:13.850Z,9.03
2019-05-28T09:18:43.260Z,5.97
2019-05-28T09:21:12.309Z,9.40
2019-05-28T09:23:41.369Z,4.60
2019-05-28T09:26:10.394Z,4.30
2019-05-28T09:28:39.732Z,2.10
2019-05-28T09:31:09.059Z,1.67
2019-05-28T09:33:38.351Z,4.70
2019-05-28T09:36:09.237Z,1.67
2019-05-28T09:38:38.124Z,12.82
2019-05-28T09:41:07.451Z,5.72
2019-05-28T09:43:36.823Z,2.35
2019-05-28T09:46:05.839Z,3.90
2019-05-28T09:48:35.261Z,4.35
2019-05-28T09:51:04.653Z,3.90
2019-05-28T09:53:34.997Z,3.17
2019-05-28T09:56:04.687Z,1.60
2019-05-28T09:58:33.717Z,4.05
2019-05-28T10:01:02.863Z,2.33
2019-05-28T10:03:31.975Z,2.02
2019-05-28T10:06:15.713Z,2.55
2019-05-28T10:08:32.311Z,3.23
2019-05-28T10:11:02.036Z,4.37
2019-05-28T10:13:39.282Z,6.73
2019-05-28T10:16:01.864Z,3.73
2019-05-28T10:18:31.206Z,3.30
2019-05-28T10:21:17.119Z,4.83
2019-05-28T10:23:30.959Z,3.87
2019-05-28T10:25:59.994Z,6.07
2019-05-28T10:28:29.037Z,1.53
2019-05-28T10:30:58.032Z,1.77
2019-05-28T10:33:27.082Z,4.20
2019-05-28T10:35:56.444Z,0.60
2019-05-28T10:38:25.454Z,3.03
2019-05-28T10:40:54.797Z,2.07
2019-05-28T10:43:24.149Z,1.87
2019-05-28T10:45:53.634Z,1.97
2019-05-28T10:48:22.783Z,1.63
2019-05-28T10:50:52.188Z,4.05
2019-05-28T10:53:21.231Z,1.57
2019-05-28T10:55:50.291Z,8.15
2019-05-28T10:58:19.325Z,2.50
2019-05-28T11:00:48.332Z,3.72
2019-05-28T11:03:17.673Z,3.75
2019-05-28T11:05:46.719Z,2.50
2019-05-28T11:08:16.433Z,5.12
2019-05-28T11:10:45.653Z,6.85
2019-05-28T11:13:14.675Z,6.42
2019-05-28T11:15:43.792Z,5.70
2019-05-28T11:18:12.810Z,6.62
2019-05-28T11:20:41.828Z,7.15
2019-05-28T11:23:10.859Z,4.20
2019-05-28T11:25:39.886Z,5.37
2019-05-28T11:28:08.946Z,2.50
2019-05-28T11:30:38.294Z,3.53
2019-05-28T11:33:08.051Z,3.80
2019-05-28T11:35:37.218Z,2.80
2019-05-28T11:38:06.219Z,4.23
2019-05-28T11:40:35.256Z,3.27
2019-05-28T11:43:04.274Z,4.37
2019-05-28T11:45:34.019Z,3.40
2019-05-28T11:48:03.396Z,2.90
2019-05-28T11:50:32.422Z,3.58
2019-05-28T11:53:02.081Z,4.50
2019-05-28T11:55:31.120Z,4.90
2019-05-28T11:58:00.187Z,3.17
2019-05-28T12:00:29.508Z,4.23
2019-05-28T12:02:58.530Z,3.30
2019-05-28T12:05:28.273Z,10.20
2019-05-28T12:07:57.277Z,2.27
2019-05-28T12:10:27.602Z,2.67
2019-05-28T12:12:56.618Z,4.53
2019-05-28T12:15:26.918Z,2.40
2019-05-28T12:17:56.234Z,4.47
2019-05-28T12:20:25.267Z,2.43
2019-05-28T12:23:09.595Z,4.78
2019-05-28T12:25:25.421Z,3.37
2019-05-28T12:27:54.796Z,3.65
2019-05-28T12:30:24.494Z,2.52
2019-05-28T12:32:53.506Z,2.85
2019-05-28T12:35:30.489Z,4.62
2019-05-28T12:37:53.510Z,4.03
2019-05-28T12:40:22.893Z,3.40
2019-05-28T12:42:52.270Z,4.92
2019-05-28T12:45:34.440Z,4.00
2019-05-28T12:48:12.194Z,2.53
2019-05-28T12:50:23.754Z,4.45
2019-05-28T12:52:53.052Z,3.95
2019-05-28T12:55:22.462Z,2.83
2019-05-28T12:57:52.215Z,5.85
2019-05-28T13:00:21.496Z,2.62
2019-05-28T13:02:51.175Z,3.45
2019-05-28T13:05:21.482Z,3.22
2019-05-28T13:08:06.589Z,3.08
2019-05-28T13:10:21.706Z,4.28
2019-05-28T13:12:51.060Z,3.47
2019-05-28T13:15:20.805Z,3.33
2019-05-28T13:17:50.168Z,2.20
2019-05-28T13:20:19.608Z,3.42
2019-05-28T13:22:48.951Z,2.87
2019-05-28T13:25:18.688Z,5.90
2019-05-28T13:27:47.733Z,2.60
2019-05-28T13:30:17.806Z,3.47
2019-05-28T13:32:47.090Z,2.75
2019-05-28T13:35:16.815Z,4.15
2019-05-28T13:37:45.811Z,3.08
2019-05-28T13:40:15.678Z,3.15
2019-05-28T13:42:44.738Z,2.67
2019-05-28T13:45:14.056Z,4.65
2019-05-28T13:47:43.072Z,3.05
2019-05-28T13:50:12.430Z,3.87
2019-05-28T13:52:41.436Z,3.67
2019-05-28T13:55:11.091Z,4.07
2019-05-28T13:57:40.169Z,5.87
2019-05-28T14:00:11.028Z,3.42
2019-05-28T14:02:45.023Z,6.35
2019-05-28T14:05:11.732Z,4.92
2019-05-28T14:07:40.748Z,2.55
2019-05-28T14:10:10.680Z,4.30
2019-05-28T14:12:39.817Z,2.70
2019-05-28T14:15:09.698Z,5.28
2019-05-28T14:17:38.696Z,3.72
2019-05-28T14:20:09.826Z,4.03
2019-05-28T14:22:39.119Z,3.70
2019-05-28T14:25:08.286Z,4.60
2019-05-28T14:27:37.368Z,3.00
2019-05-28T14:30:07.487Z,3.65
2019-05-28T14:32:36.810Z,2.00
2019-05-28T14:35:07.413Z,2.62
2019-05-28T14:37:36.493Z,3.90
2019-05-28T14:40:06.505Z,3.60
2019-05-28T14:42:35.854Z,2.70
2019-05-28T14:45:05.946Z,3.65
2019-05-28T14:47:35.060Z,5.17
2019-05-28T14:50:04.738Z,4.22
2019-05-28T14:52:34.083Z,2.90
2019-05-28T14:55:03.105Z,5.87
2019-05-28T14:57:32.122Z,4.53
2019-05-28T15:00:01.144Z,5.40
2019-05-28T15:02:30.556Z,5.28
2019-05-28T15:04:59.577Z,4.97
2019-05-28T15:07:28.603Z,5.95
2019-05-28T15:09:57.646Z,5.58
2019-05-28T15:12:26.675Z,3.72
2019-05-28T15:14:55.697Z,5.45
2019-05-28T15:17:26.688Z,3.02
2019-05-28T15:19:55.492Z,4.35
2019-05-28T15:22:24.501Z,6.20
2019-05-28T15:24:53.534Z,4.58
2019-05-28T15:27:22.839Z,3.27
2019-05-28T15:29:52.334Z,5.60
2019-05-28T15:32:21.488Z,4.10
2019-05-28T15:34:50.835Z,8.30
2019-05-28T15:37:19.887Z,4.27
2019-05-28T15:39:49.234Z,5.00
2019-05-28T15:42:20.545Z,4.58
2019-05-28T15:44:49.062Z,6.47
2019-05-28T15:47:18.699Z,5.87
2019-05-28T15:49:47.746Z,5.85
2019-05-28T15:52:16.772Z,4.83
2019-05-28T15:54:45.897Z,5.10
2019-05-28T15:57:15.248Z,5.40
2019-05-28T15:59:44.336Z,4.25
2019-05-28T16:02:13.372Z,4.30
2019-05-28T16:04:42.827Z,6.00
2019-05-28T16:07:11.821Z,5.15
2019-05-28T16:09:55.133Z,4.83
2019-05-28T16:12:12.316Z,3.80
2019-05-28T16:14:41.311Z,2.08
2019-05-28T16:17:10.364Z,3.05
2019-05-28T16:19:39.385Z,2.47
2019-05-28T16:22:08.394Z,2.83
2019-05-28T16:24:37.442Z,3.90
2019-05-28T16:27:06.463Z,3.52
2019-05-28T16:29:35.519Z,4.45
2019-05-28T16:32:04.873Z,2.87
2019-05-28T16:34:34.267Z,6.27
2019-05-28T16:37:03.351Z,5.53
2019-05-28T16:39:32.418Z,5.23
2019-05-28T16:42:01.828Z,5.50
2019-05-28T16:44:30.955Z,5.45
2019-05-28T16:47:15.203Z,5.90
2019-05-28T16:49:30.932Z,8.07
2019-05-28T16:51:59.921Z,5.53
2019-05-28T16:54:28.987Z,8.20
2019-05-28T16:56:58.011Z,6.03
2019-05-28T16:59:27.368Z,6.10
2019-05-28T17:01:56.830Z,5.37
2019-05-28T17:04:26.434Z,5.92
2019-05-28T17:06:55.517Z,5.90
2019-05-28T17:09:24.836Z,5.35
2019-05-28T17:11:54.238Z,4.83
2019-05-28T17:14:26.963Z,3.87
2019-05-28T17:16:54.653Z,4.37
2019-05-28T17:19:24.297Z,5.07
2019-05-28T17:21:54.100Z,3.77
2019-05-28T17:24:23.085Z,3.27
2019-05-28T17:26:52.189Z,6.15
2019-05-28T17:29:21.623Z,3.80
2019-05-28T17:31:50.907Z,3.07
2019-05-28T17:34:20.291Z,5.10
2019-05-28T17:36:50.363Z,2.97
2019-05-28T17:39:19.460Z,3.20
2019-05-28T17:41:48.547Z,3.50
2019-05-28T17:44:17.616Z,3.23
2019-05-28T17:46:47.008Z,3.23
2019-05-28T17:49:16.065Z,2.42
2019-05-28T17:51:45.852Z,3.17
2019-05-28T17:54:14.905Z,2.73
2019-05-28T17:56:43.914Z,2.63
2019-05-28T17:59:12.929Z,2.50
2019-05-28T18:01:42.409Z,3.10
2019-05-28T18:04:11.453Z,3.35
2019-05-28T18:06:40.465Z,3.50
2019-05-28T18:09:10.998Z,2.30
2019-05-28T18:11:40.015Z,2.03
2019-05-28T18:14:09.390Z,2.93
2019-05-28T18:16:38.405Z,6.10
2019-05-28T18:19:07.523Z,3.00
2019-05-28T18:21:36.565Z,5.30
2019-05-28T18:24:06.015Z,4.20
2019-05-28T18:26:35.435Z,3.77
2019-05-28T18:29:04.620Z,5.27
2019-05-28T18:31:34.303Z,4.70
2019-05-28T18:34:03.701Z,5.00
2019-05-28T18:36:32.777Z,4.43
2019-05-28T18:39:02.098Z,4.97
2019-05-28T18:41:32.830Z,4.73
2019-05-28T18:44:02.003Z,5.93
2019-05-28T18:46:34.095Z,6.50
2019-05-28T18:49:03.167Z,4.40
2019-05-28T18:51:32.225Z,4.50
2019-05-28T18:54:01.559Z,6.00
2019-05-28T18:56:31.309Z,5.77
2019-05-28T18:59:00.338Z,6.03
2019-05-28T19:01:29.401Z,5.13
2019-05-28T19:03:58.770Z,4.93
2019-05-28T19:06:27.765Z,6.47
2019-05-28T19:08:56.841Z,4.53
2019-05-28T19:11:37.426Z,4.83
2019-05-28T19:13:56.615Z,6.70
2019-05-28T19:16:25.646Z,5.20
2019-05-28T19:18:55.438Z,5.50
2019-05-28T19:21:24.569Z,6.50
2019-05-28T19:23:53.614Z,6.43
2019-05-28T19:26:23.006Z,6.50
2019-05-28T19:28:52.433Z,4.77
2019-05-28T19:31:21.483Z,6.73
2019-05-28T19:33:50.889Z,7.30
2019-05-28T19:36:20.052Z,7.27
2019-05-28T19:38:49.495Z,6.00
2019-05-28T19:41:18.489Z,7.63
2019-05-28T19:43:47.544Z,6.30
2019-05-28T19:46:16.549Z,7.23
2019-05-28T19:48:47.042Z,6.50
2019-05-28T19:51:16.138Z,4.60
2019-05-28T19:53:45.167Z,10.03
2019-05-28T19:56:14.180Z,6.53
2019-05-28T19:58:43.242Z,6.07
2019-05-28T20:01:12.280Z,6.27
2019-05-28T20:03:41.344Z,8.37
2019-05-28T20:06:10.366Z,7.47
2019-05-28T20:08:39.376Z,6.00
2019-05-28T20:11:08.390Z,7.07
2019-05-28T20:13:37.464Z,5.73
2019-05-28T20:16:07.137Z,5.67
2019-05-28T20:18:36.205Z,6.40
2019-05-28T20:21:05.393Z,6.73
2019-05-28T20:23:34.745Z,8.20
2019-05-28T20:26:03.773Z,9.33
2019-05-28T20:28:32.784Z,5.90
2019-05-28T20:31:02.158Z,6.37
2019-05-28T20:33:31.203Z,7.77
2019-05-28T20:36:01.553Z,4.73
2019-05-28T20:38:30.948Z,5.83
2019-05-28T20:41:00.331Z,6.73
2019-05-28T20:43:29.626Z,8.43
2019-05-28T20:45:58.644Z,8.30
2019-05-28T20:48:27.680Z,8.77
2019-05-28T20:51:07.386Z,10.50
2019-05-28T20:53:35.674Z,8.70
2019-05-28T20:55:58.727Z,9.07
2019-05-28T20:58:39.984Z,8.63
2019-05-28T21:00:59.138Z,5.60
2019-05-28T21:03:28.434Z,5.80
2019-05-28T21:05:57.468Z,7.70
2019-05-28T21:08:26.491Z,9.27
2019-05-28T21:10:56.723Z,7.07
2019-05-28T21:13:26.128Z,12.97
2019-05-28T21:15:55.429Z,7.93
2019-05-28T21:18:24.448Z,10.17
2019-05-28T21:20:53.850Z,7.37
2019-05-28T21:23:23.246Z,4.97
2019-05-28T21:25:52.636Z,5.67
2019-05-28T21:28:21.647Z,6.47
2019-05-28T21:30:50.712Z,7.63
2019-05-28T21:33:19.686Z,9.50
2019-05-28T21:35:48.712Z,9.80
2019-05-28T21:38:17.735Z,6.87
2019-05-28T21:40:47.134Z,6.90
2019-05-28T21:43:16.136Z,9.60
2019-05-28T21:45:45.144Z,6.87
2019-05-28T21:48:14.175Z,5.70
2019-05-28T21:50:43.176Z,7.80
2019-05-28T21:53:12.217Z,8.90
2019-05-28T21:55:41.239Z,10.13
2019-05-28T21:58:10.265Z,10.43
2019-05-28T22:00:49.761Z,12.97
2019-05-28T22:03:18.806Z,7.70
2019-05-28T22:05:47.823Z,9.17
2019-05-28T22:08:16.859Z,9.13
2019-05-28T22:10:46.176Z,9.47
2019-05-28T22:13:21.823Z,7.33
2019-05-28T22:15:45.977Z,6.13
2019-05-28T22:18:15.010Z,7.23
2019-05-28T22:20:44.169Z,9.17
2019-05-28T22:23:13.205Z,7.43
2019-05-28T22:25:42.586Z,11.37
2019-05-28T22:28:11.623Z,10.93
2019-05-28T22:30:40.886Z,11.33
2019-05-28T22:33:10.279Z,11.00
2019-05-28T22:35:39.692Z,8.60
2019-05-28T22:38:08.718Z,7.83
2019-05-28T22:40:38.076Z,9.17
2019-05-28T22:43:07.370Z,9.20
2019-05-28T22:45:41.750Z,10.70
2019-05-28T22:48:14.802Z,10.27
2019-05-28T22:50:38.451Z,9.20
2019-05-28T22:53:08.171Z,8.67
2019-05-28T22:55:37.371Z,10.70
2019-05-28T22:58:06.593Z,9.27
2019-05-28T23:00:35.944Z,11.00
2019-05-28T23:03:05.104Z,16.27
2019-05-28T23:05:34.573Z,8.67
2019-05-28T23:08:03.907Z,12.70
2019-05-28T23:10:33.558Z,10.17
2019-05-28T23:13:03.015Z,9.30
2019-05-28T23:15:32.199Z,9.83
2019-05-28T23:18:02.399Z,12.20
2019-05-28T23:20:31.509Z,8.53
2019-05-28T23:23:01.484Z,9.77
2019-05-28T23:25:30.503Z,9.57
2019-05-28T23:27:59.590Z,11.47
2019-05-28T23:30:29.276Z,11.93
2019-05-28T23:32:58.306Z,10.37
2019-05-28T23:35:27.982Z,12.30
2019-05-28T23:37:57.398Z,10.83
2019-05-28T23:40:26.432Z,12.50
2019-05-28T23:42:55.433Z,15.30
2019-05-28T23:45:24.774Z,13.20
2019-05-28T23:47:54.172Z,12.80
2019-05-28T23:50:23.195Z,12.00
2019-05-28T23:52:52.232Z,11.43
2019-05-28T23:55:21.322Z,14.00
2019-05-28T23:57:50.321Z,10.27
